Terminal Aerodrome Forecast
Issued by NWS

Home | Current Version | Previous Version | Text Only | Print | Product List | Glossary Off
Versions: 1 2 3 4 5 6 7 8 9 10 11 12 13 14 15 16 17

552
FTUS43 KMPX 270520
TAFRWF
TAF
KRWF 270520Z 2706/2806 20004KT P6SM SCT120 OVC180
     FM271200 20004KT P6SM VCSH SCT040 OVC100
     FM271700 24006KT P6SM VCTS OVC040CB
     FM272100 35004KT P6SM SCT025 OVC100=

USA.gov is the U.S. government's official web portal to all federal, state and local government web resources and services.